sensor_id;sensor_type;location;lat;lon;timestamp;pressure;altitude;pressure_sealevel;temperature;humidity
10167;BME280;62970;53.130;8.244;2024-03-23T00:55:24;100895.88;;;5.51;74.13
10167;BME280;62970;53.130;8.244;2024-03-23T00:57:50;100893.28;;;5.53;74.03
10167;BME280;62970;53.130;8.244;2024-03-23T01:00:17;100891.56;;;5.52;74.43
10167;BME280;62970;53.130;8.244;2024-03-23T01:02:43;100885.53;;;5.51;74.58
10167;BME280;62970;53.130;8.244;2024-03-23T01:05:10;100886.38;;;5.50;74.31
10167;BME280;62970;53.130;8.244;2024-03-23T01:07:36;100880.34;;;5.50;74.14
10167;BME280;62970;53.130;8.244;2024-03-23T01:10:04;100890.69;;;5.48;74.55
10167;BME280;62970;53.130;8.244;2024-03-23T01:12:33;100880.34;;;5.47;74.60
10167;BME280;62970;53.130;8.244;2024-03-23T01:15:00;100873.47;;;5.46;74.62
10167;BME280;62970;53.130;8.244;2024-03-23T01:17:26;100878.63;;;5.46;74.36
10167;BME280;62970;53.130;8.244;2024-03-23T01:19:53;100876.91;;;5.45;74.20
10167;BME280;62970;53.130;8.244;2024-03-23T01:22:19;100861.38;;;5.43;74.45
10167;BME280;62970;53.130;8.244;2024-03-23T01:24:45;100865.69;;;5.44;74.55
10167;BME280;62970;53.130;8.244;2024-03-23T01:27:12;100863.13;;;5.43;74.23
10167;BME280;62970;53.130;8.244;2024-03-23T01:29:41;100862.25;;;5.42;74.42
10167;BME280;62970;53.130;8.244;2024-03-23T01:32:07;100863.97;;;5.43;74.55
10167;BME280;62970;53.130;8.244;2024-03-23T01:34:34;100857.94;;;5.43;74.22
10167;BME280;62970;53.130;8.244;2024-03-23T01:37:01;100851.91;;;5.42;74.75
10167;BME280;62970;53.130;8.244;2024-03-23T01:39:27;100845.88;;;5.42;74.61
10167;BME280;62970;53.130;8.244;2024-03-23T01:41:54;100836.38;;;5.42;74.32
10167;BME280;62970;53.130;8.244;2024-03-23T01:44:20;100834.66;;;5.41;74.41
10167;BME280;62970;53.130;8.244;2024-03-23T01:46:49;100840.69;;;5.42;74.78
10167;BME280;62970;53.130;8.244;2024-03-23T01:49:16;100844.16;;;5.42;74.50
10167;BME280;62970;53.130;8.244;2024-03-23T01:51:43;100845.88;;;5.42;74.60
10167;BME280;62970;53.130;8.244;2024-03-23T01:54:11;100844.16;;;5.41;74.59
10167;BME280;62970;53.130;8.244;2024-03-23T01:56:37;100834.66;;;5.40;74.76
10167;BME280;62970;53.130;8.244;2024-03-23T01:59:04;100831.22;;;5.37;74.24
10167;BME280;62970;53.130;8.244;2024-03-23T02:01:31;100827.78;;;5.37;74.21
10167;BME280;62970;53.130;8.244;2024-03-23T02:04:01;100819.16;;;5.35;74.58
10167;BME280;62970;53.130;8.244;2024-03-23T02:06:28;100823.47;;;5.34;74.15
10167;BME280;62970;53.130;8.244;2024-03-23T02:08:55;100820.00;;;5.32;74.55
10167;BME280;62970;53.130;8.244;2024-03-23T02:11:21;100814.81;;;5.29;74.24
10167;BME280;62970;53.130;8.244;2024-03-23T02:13:48;100812.25;;;5.26;74.26
10167;BME280;62970;53.130;8.244;2024-03-23T02:16:14;100815.69;;;5.22;73.96
10167;BME280;62970;53.130;8.244;2024-03-23T02:18:41;100815.69;;;5.19;74.26
10167;BME280;62970;53.130;8.244;2024-03-23T02:21:10;100815.69;;;5.15;74.12
10167;BME280;62970;53.130;8.244;2024-03-23T02:23:39;100813.97;;;5.11;74.13
10167;BME280;62970;53.130;8.244;2024-03-23T02:26:05;100810.53;;;5.09;74.43
10167;BME280;62970;53.130;8.244;2024-03-23T02:28:32;100801.06;;;5.06;74.30
10167;BME280;62970;53.130;8.244;2024-03-23T02:30:59;100791.59;;;5.03;74.74
10167;BME280;62970;53.130;8.244;2024-03-23T02:33:25;100780.38;;;5.03;74.42
10167;BME280;62970;53.130;8.244;2024-03-23T02:35:56;100776.94;;;4.99;74.44
10167;BME280;62970;53.130;8.244;2024-03-23T02:38:22;100774.34;;;4.99;74.53
10167;BME280;62970;53.130;8.244;2024-03-23T02:40:51;100770.91;;;4.97;74.67
10167;BME280;62970;53.130;8.244;2024-03-23T02:43:18;100776.94;;;4.98;74.86
10167;BME280;62970;53.130;8.244;2024-03-23T02:45:44;100770.06;;;4.97;74.88
10167;BME280;62970;53.130;8.244;2024-03-23T02:48:11;100764.03;;;4.96;74.92
10167;BME280;62970;53.130;8.244;2024-03-23T02:50:37;100761.44;;;4.95;74.66
10167;BME280;62970;53.130;8.244;2024-03-23T02:53:04;100770.06;;;4.94;74.39
10167;BME280;62970;53.130;8.244;2024-03-23T02:55:30;100758.84;;;4.92;74.91
10167;BME280;62970;53.130;8.244;2024-03-23T02:57:59;100758.00;;;4.90;74.67
10167;BME280;62970;53.130;8.244;2024-03-23T03:00:26;100752.81;;;4.88;74.44
10167;BME280;62970;53.130;8.244;2024-03-23T03:02:52;100748.53;;;4.86;74.93
10167;BME280;62970;53.130;8.244;2024-03-23T03:05:19;100748.53;;;4.84;74.45
10167;BME280;62970;53.130;8.244;2024-03-23T03:07:48;100742.50;;;4.82;74.52
10167;BME280;62970;53.130;8.244;2024-03-23T03:10:15;100745.91;;;4.80;74.80
10167;BME280;62970;53.130;8.244;2024-03-23T03:12:41;100740.75;;;4.77;74.80
10167;BME280;62970;53.130;8.244;2024-03-23T03:15:10;100742.47;;;4.73;74.85
10167;BME280;62970;53.130;8.244;2024-03-23T03:17:37;100737.31;;;4.71;74.38
10167;BME280;62970;53.130;8.244;2024-03-23T03:20:05;100738.16;;;4.69;74.55
10167;BME280;62970;53.130;8.244;2024-03-23T03:22:32;100740.75;;;4.67;74.91
10167;BME280;62970;53.130;8.244;2024-03-23T03:24:58;100733.00;;;4.64;74.67
10167;BME280;62970;53.130;8.244;2024-03-23T03:27:25;100728.69;;;4.62;74.45
10167;BME280;62970;53.130;8.244;2024-03-23T03:29:52;100731.28;;;4.59;74.43
10167;BME280;62970;53.130;8.244;2024-03-23T03:32:21;100727.81;;;4.54;74.41
10167;BME280;62970;53.130;8.244;2024-03-23T03:34:47;100738.16;;;4.49;74.52
10167;BME280;62970;53.130;8.244;2024-03-23T03:37:14;100721.78;;;4.47;74.71
10167;BME280;62970;53.130;8.244;2024-03-23T03:39:40;100714.06;;;4.44;74.73
10167;BME280;62970;53.130;8.244;2024-03-23T03:42:07;100713.19;;;4.42;74.50
10167;BME280;62970;53.130;8.244;2024-03-23T03:44:33;100709.75;;;4.37;74.58
10167;BME280;62970;53.130;8.244;2024-03-23T03:47:00;100697.69;;;4.34;74.62
10167;BME280;62970;53.130;8.244;2024-03-23T03:49:29;100700.28;;;4.30;74.69
10167;BME280;62970;53.130;8.244;2024-03-23T03:51:55;100694.25;;;4.26;74.30
10167;BME280;62970;53.130;8.244;2024-03-23T03:54:22;100696.81;;;4.20;74.04
10167;BME280;62970;53.130;8.244;2024-03-23T03:56:48;100708.84;;;4.15;74.10
10167;BME280;62970;53.130;8.244;2024-03-23T03:59:15;100713.16;;;4.12;74.26
10167;BME280;62970;53.130;8.244;2024-03-23T04:01:41;100702.81;;;4.07;74.14
10167;BME280;62970;53.130;8.244;2024-03-23T04:04:08;100703.66;;;4.04;74.44
10167;BME280;62970;53.130;8.244;2024-03-23T04:06:37;100707.09;;;4.02;74.60
10167;BME280;62970;53.130;8.244;2024-03-23T04:09:04;100705.38;;;3.99;74.20
10167;BME280;62970;53.130;8.244;2024-03-23T04:11:30;100707.97;;;3.96;74.59
10167;BME280;62970;53.130;8.244;2024-03-23T04:13:56;100701.06;;;3.91;74.01
10167;BME280;62970;53.130;8.244;2024-03-23T04:16:27;100694.16;;;3.85;74.26
10167;BME280;62970;53.130;8.244;2024-03-23T04:18:54;100704.47;;;3.84;74.20
10167;BME280;62970;53.130;8.244;2024-03-23T04:21:21;100705.31;;;3.80;74.66
10167;BME280;62970;53.130;8.244;2024-03-23T04:23:50;100701.88;;;3.76;74.57
10167;BME280;62970;53.130;8.244;2024-03-23T04:26:17;100698.44;;;3.72;74.41
10167;BME280;62970;53.130;8.244;2024-03-23T04:28:43;100699.28;;;3.68;74.26
10167;BME280;62970;53.130;8.244;2024-03-23T04:31:10;100694.97;;;3.64;74.00
10167;BME280;62970;53.130;8.244;2024-03-23T04:33:36;100689.78;;;3.58;74.28
10167;BME280;62970;53.130;8.244;2024-03-23T04:36:04;100693.22;;;3.54;74.04
10167;BME280;62970;53.130;8.244;2024-03-23T04:38:30;100685.44;;;3.50;74.09
10167;BME280;62970;53.130;8.244;2024-03-23T04:41:00;100682.00;;;3.43;73.90
10167;BME280;62970;53.130;8.244;2024-03-23T04:43:26;100686.28;;;3.39;73.96
10167;BME280;62970;53.130;8.244;2024-03-23T04:45:53;100678.53;;;3.36;74.40
10167;BME280;62970;53.130;8.244;2024-03-23T04:48:22;100681.94;;;3.31;74.05
10167;BME280;62970;53.130;8.244;2024-03-23T04:50:49;100676.75;;;3.28;74.56
10167;BME280;62970;53.130;8.244;2024-03-23T04:53:15;100669.88;;;3.24;74.07
10167;BME280;62970;53.130;8.244;2024-03-23T04:55:42;100663.00;;;3.21;74.01
10167;BME280;62970;53.130;8.244;2024-03-23T04:58:11;100666.41;;;3.16;74.21
10167;BME280;62970;53.130;8.244;2024-03-23T05:00:38;100662.09;;;3.11;74.19
10167;BME280;62970;53.130;8.244;2024-03-23T05:03:05;100658.63;;;3.08;74.20
10167;BME280;62970;53.130;8.244;2024-03-23T05:05:32;100661.19;;;3.03;74.29
10167;BME280;62970;53.130;8.244;2024-03-23T05:07:59;100658.59;;;3.00;74.33
10167;BME280;62970;53.130;8.244;2024-03-23T05:10:25;100665.44;;;2.97;74.26
10167;BME280;62970;53.130;8.244;2024-03-23T05:12:52;100650.81;;;2.94;74.40
10167;BME280;62970;53.130;8.244;2024-03-23T05:15:21;100655.97;;;2.91;74.80
10167;BME280;62970;53.130;8.244;2024-03-23T05:17:47;100660.25;;;2.89;74.37
10167;BME280;62970;53.130;8.244;2024-03-23T05:20:14;100655.03;;;2.86;74.65
10167;BME280;62970;53.130;8.244;2024-03-23T05:22:40;100651.59;;;2.84;74.28
10167;BME280;62970;53.130;8.244;2024-03-23T05:25:07;100655.03;;;2.83;74.50
10167;BME280;62970;53.130;8.244;2024-03-23T05:27:34;100650.72;;;2.82;74.34
10167;BME280;62970;53.130;8.244;2024-03-23T05:30:01;100648.13;;;2.79;74.52
10167;BME280;62970;53.130;8.244;2024-03-23T05:32:30;100652.41;;;2.78;74.58
10167;BME280;62970;53.130;8.244;2024-03-23T05:34:56;100652.41;;;2.77;74.83
10167;BME280;62970;53.130;8.244;2024-03-23T05:37:23;100650.69;;;2.76;74.67
10167;BME280;62970;53.130;8.244;2024-03-23T05:39:50;100650.69;;;2.74;74.83
10167;BME280;62970;53.130;8.244;2024-03-23T05:42:17;100642.94;;;2.74;75.00
10167;BME280;62970;53.130;8.244;2024-03-23T05:44:44;100642.09;;;2.74;74.79
10167;BME280;62970;53.130;8.244;2024-03-23T05:47:12;100639.50;;;2.72;74.82
10167;BME280;62970;53.130;8.244;2024-03-23T05:49:42;100644.66;;;2.72;74.92
10167;BME280;62970;53.130;8.244;2024-03-23T05:52:09;100642.94;;;2.73;75.09
10167;BME280;62970;53.130;8.244;2024-03-23T05:54:37;100644.66;;;2.74;75.19
10167;BME280;62970;53.130;8.244;2024-03-23T05:57:04;100639.53;;;2.77;75.50
10167;BME280;62970;53.130;8.244;2024-03-23T05:59:31;100643.88;;;2.84;75.76
10167;BME280;62970;53.130;8.244;2024-03-23T06:01:59;100643.94;;;2.90;75.82
10167;BME280;62970;53.130;8.244;2024-03-23T06:04:25;100641.44;;;3.02;76.13
10167;BME280;62970;53.130;8.244;2024-03-23T06:06:55;100643.22;;;3.20;76.59
10167;BME280;62970;53.130;8.244;2024-03-23T06:09:24;100644.22;;;3.54;77.10
10167;BME280;62970;53.130;8.244;2024-03-23T06:11:51;100647.75;;;3.96;77.42
10167;BME280;62970;53.130;8.244;2024-03-23T06:14:18;100646.06;;;4.42;77.42
10167;BME280;62970;53.130;8.244;2024-03-23T06:16:45;100643.44;;;4.86;77.68
10167;BME280;62970;53.130;8.244;2024-03-23T06:19:13;100634.69;;;5.28;77.11
10167;BME280;62970;53.130;8.244;2024-03-23T06:21:43;100635.38;;;5.70;77.29
10167;BME280;62970;53.130;8.244;2024-03-23T06:24:14;100638.59;;;6.09;76.49
10167;BME280;62970;53.130;8.244;2024-03-23T06:26:40;100630.50;;;6.47;75.97
10167;BME280;62970;53.130;8.244;2024-03-23T06:29:07;100628.47;;;6.79;75.31
10167;BME280;62970;53.130;8.244;2024-03-23T06:31:35;100637.69;;;7.06;75.17
10167;BME280;62970;53.130;8.244;2024-03-23T06:34:02;100635.78;;;7.22;74.21
10167;BME280;62970;53.130;8.244;2024-03-23T06:36:31;100633.16;;;7.25;73.01
10167;BME280;62970;53.130;8.244;2024-03-23T06:38:58;100633.22;;;7.17;72.39
10167;BME280;62970;53.130;8.244;2024-03-23T06:41:27;100631.66;;;7.03;72.12
10167;BME280;62970;53.130;8.244;2024-03-23T06:43:54;100631.84;;;6.87;72.11
10167;BME280;62970;53.130;8.244;2024-03-23T06:46:21;100624.19;;;6.74;71.97
10167;BME280;62970;53.130;8.244;2024-03-23T06:48:48;100631.22;;;6.61;72.11
10167;BME280;62970;53.130;8.244;2024-03-23T06:51:14;100628.75;;;6.49;72.89
10167;BME280;62970;53.130;8.244;2024-03-23T06:53:41;100626.25;;;6.41;72.49
10167;BME280;62970;53.130;8.244;2024-03-23T06:56:08;100627.19;;;6.32;72.54
10167;BME280;62970;53.130;8.244;2024-03-23T06:58:37;100624.63;;;6.26;73.08
10167;BME280;62970;53.130;8.244;2024-03-23T07:01:04;100628.09;;;6.24;73.28
10167;BME280;62970;53.130;8.244;2024-03-23T07:03:31;100630.69;;;6.24;73.19
10167;BME280;62970;53.130;8.244;2024-03-23T07:05:58;100625.50;;;6.27;73.56
10167;BME280;62970;53.130;8.244;2024-03-23T07:08:27;100620.28;;;6.31;73.22
10167;BME280;62970;53.130;8.244;2024-03-23T07:10:54;100631.44;;;6.38;73.52
10167;BME280;62970;53.130;8.244;2024-03-23T07:13:20;100622.81;;;6.39;73.33
10167;BME280;62970;53.130;8.244;2024-03-23T07:15:55;100621.06;;;6.40;73.18
10167;BME280;62970;53.130;8.244;2024-03-23T07:18:22;100623.66;;;6.41;73.41
10167;BME280;62970;53.130;8.244;2024-03-23T07:20:55;100628.81;;;6.41;73.30
10167;BME280;62970;53.130;8.244;2024-03-23T07:23:22;100615.00;;;6.42;73.18
10167;BME280;62970;53.130;8.244;2024-03-23T07:25:57;100620.19;;;6.41;73.43
10167;BME280;62970;53.130;8.244;2024-03-23T07:28:24;100615.03;;;6.39;72.82
10167;BME280;62970;53.130;8.244;2024-03-23T07:31:05;100626.25;;;6.40;73.07
10167;BME280;62970;53.130;8.244;2024-03-23T07:33:32;100620.19;;;6.42;73.01
10167;BME280;62970;53.130;8.244;2024-03-23T07:35:59;100614.16;;;6.42;73.13
10167;BME280;62970;53.130;8.244;2024-03-23T07:38:27;100609.84;;;6.41;72.80
10167;BME280;62970;53.130;8.244;2024-03-23T07:41:04;100612.44;;;6.39;72.77
10167;BME280;62970;53.130;8.244;2024-03-23T07:43:30;100603.81;;;6.40;72.66
10167;BME280;62970;53.130;8.244;2024-03-23T07:45:57;100598.63;;;6.40;72.52
10167;BME280;62970;53.130;8.244;2024-03-23T07:48:28;100610.69;;;6.41;72.49
10167;BME280;62970;53.130;8.244;2024-03-23T07:51:02;100604.66;;;6.41;72.61
10167;BME280;62970;53.130;8.244;2024-03-23T07:53:29;100609.81;;;6.44;72.69
10167;BME280;62970;53.130;8.244;2024-03-23T07:55:57;100613.25;;;6.44;72.43
10167;BME280;62970;53.130;8.244;2024-03-23T07:58:25;100605.47;;;6.47;72.83
10167;BME280;62970;53.130;8.244;2024-03-23T08:00:53;100611.47;;;6.49;72.50
10167;BME280;62970;53.130;8.244;2024-03-23T08:03:19;100608.88;;;6.52;72.42
10167;BME280;62970;53.130;8.244;2024-03-23T08:05:49;100607.97;;;6.56;72.64
10167;BME280;62970;53.130;8.244;2024-03-23T08:08:16;100603.56;;;6.64;72.63
10167;BME280;62970;53.130;8.244;2024-03-23T08:10:49;100609.53;;;6.71;72.29
10167;BME280;62970;53.130;8.244;2024-03-23T08:13:16;100599.09;;;6.79;71.85
10167;BME280;62970;53.130;8.244;2024-03-23T08:15:43;100602.47;;;6.85;71.77
10167;BME280;62970;53.130;8.244;2024-03-23T08:18:11;100598.97;;;6.91;71.41
10167;BME280;62970;53.130;8.244;2024-03-23T08:20:38;100596.31;;;6.95;71.51
10167;BME280;62970;53.130;8.244;2024-03-23T08:23:08;100594.50;;;7.02;71.27
10167;BME280;62970;53.130;8.244;2024-03-23T08:25:35;100596.13;;;7.11;71.56
10167;BME280;62970;53.130;8.244;2024-03-23T08:28:02;100600.34;;;7.19;70.87
10167;BME280;62970;53.130;8.244;2024-03-23T08:30:28;100596.84;;;7.25;70.54
10167;BME280;62970;53.130;8.244;2024-03-23T08:32:55;100597.63;;;7.31;70.45
10167;BME280;62970;53.130;8.244;2024-03-23T08:35:24;100595.75;;;7.46;70.86
10167;BME280;62970;53.130;8.244;2024-03-23T08:37:50;100594.69;;;7.59;70.40
10167;BME280;62970;53.130;8.244;2024-03-23T08:40:19;100603.22;;;7.67;70.33
10167;BME280;62970;53.130;8.244;2024-03-23T08:42:46;100595.41;;;7.70;69.66
10167;BME280;62970;53.130;8.244;2024-03-23T08:45:13;100593.53;;;7.80;69.68
10167;BME280;62970;53.130;8.244;2024-03-23T08:47:40;100596.00;;;7.89;69.71
10167;BME280;62970;53.130;8.244;2024-03-23T08:50:08;100594.06;;;8.02;69.53
10167;BME280;62970;53.130;8.244;2024-03-23T08:52:34;100584.34;;;8.14;69.91
10167;BME280;62970;53.130;8.244;2024-03-23T08:55:02;100576.34;;;8.26;69.36
10167;BME280;62970;53.130;8.244;2024-03-23T08:57:31;100579.50;;;8.44;69.77
10167;BME280;62970;53.130;8.244;2024-03-23T08:59:58;100573.06;;;8.63;69.58
10167;BME280;62970;53.130;8.244;2024-03-23T09:02:24;100572.78;;;8.80;68.90
10167;BME280;62970;53.130;8.244;2024-03-23T09:04:51;100576.91;;;8.91;68.44
10167;BME280;62970;53.130;8.244;2024-03-23T09:07:17;100587.13;;;8.99;68.17
10167;BME280;62970;53.130;8.244;2024-03-23T09:09:44;100580.16;;;9.01;67.79
10167;BME280;62970;53.130;8.244;2024-03-23T09:12:10;100585.47;;;8.97;67.43
10167;BME280;62970;53.130;8.244;2024-03-23T09:14:39;100576.03;;;8.91;67.26
10167;BME280;62970;53.130;8.244;2024-03-23T09:17:05;100576.97;;;8.87;66.97
10167;BME280;62970;53.130;8.244;2024-03-23T09:19:32;100578.84;;;8.80;66.53
10167;BME280;62970;53.130;8.244;2024-03-23T09:21:58;100578.97;;;8.73;67.11
10167;BME280;62970;53.130;8.244;2024-03-23T09:24:25;100577.34;;;8.67;67.06
10167;BME280;62970;53.130;8.244;2024-03-23T09:26:52;100580.97;;;8.58;66.73
10167;BME280;62970;53.130;8.244;2024-03-23T09:29:20;100575.97;;;8.48;66.47
10167;BME280;62970;53.130;8.244;2024-03-23T09:31:49;100575.25;;;8.38;66.52
10167;BME280;62970;53.130;8.244;2024-03-23T09:34:15;100580.59;;;8.31;66.59
10167;BME280;62970;53.130;8.244;2024-03-23T09:36:42;100579.88;;;8.22;66.46
10167;BME280;62970;53.130;8.244;2024-03-23T09:39:08;100584.31;;;8.16;66.77
10167;BME280;62970;53.130;8.244;2024-03-23T09:41:35;100576.59;;;8.11;66.60
10167;BME280;62970;53.130;8.244;2024-03-23T09:44:02;100573.97;;;8.13;66.46
10167;BME280;62970;53.130;8.244;2024-03-23T09:46:28;100573.75;;;8.25;67.24
10167;BME280;62970;53.130;8.244;2024-03-23T09:48:58;100580.38;;;8.43;67.46
10167;BME280;62970;53.130;8.244;2024-03-23T09:51:24;100573.91;;;8.65;67.33
10167;BME280;62970;53.130;8.244;2024-03-23T09:53:51;100572.66;;;8.86;66.88
10167;BME280;62970;53.130;8.244;2024-03-23T09:56:18;100578.25;;;9.09;66.75
10167;BME280;62970;53.130;8.244;2024-03-23T09:58:45;100580.47;;;9.28;66.13
10167;BME280;62970;53.130;8.244;2024-03-23T10:01:11;100576.72;;;9.41;65.63
10167;BME280;62970;53.130;8.244;2024-03-23T10:03:44;100572.28;;;9.46;65.57
10167;BME280;62970;53.130;8.244;2024-03-23T10:06:14;100572.22;;;9.49;65.05
10167;BME280;62970;53.130;8.244;2024-03-23T10:08:47;100573.16;;;9.45;64.27
10167;BME280;62970;53.130;8.244;2024-03-23T10:11:15;100562.84;;;9.40;64.96
10167;BME280;62970;53.130;8.244;2024-03-23T10:13:42;100563.75;;;9.39;64.70
10167;BME280;62970;53.130;8.244;2024-03-23T10:16:10;100560.13;;;9.46;64.98
10167;BME280;62970;53.130;8.244;2024-03-23T10:18:38;100563.44;;;9.53;64.16
10167;BME280;62970;53.130;8.244;2024-03-23T10:21:09;100564.25;;;9.55;63.85
10167;BME280;62970;53.130;8.244;2024-03-23T10:23:41;100561.69;;;9.53;64.34
10167;BME280;62970;53.130;8.244;2024-03-23T10:26:18;100560.91;;;9.50;64.14
10167;BME280;62970;53.130;8.244;2024-03-23T10:28:55;100555.78;;;9.47;63.79
10167;BME280;62970;53.130;8.244;2024-03-23T10:31:26;100549.66;;;9.49;64.18
10167;BME280;62970;53.130;8.244;2024-03-23T10:33:53;100544.28;;;9.55;64.15
10167;BME280;62970;53.130;8.244;2024-03-23T10:36:21;100550.16;;;9.65;63.92
10167;BME280;62970;53.130;8.244;2024-03-23T10:38:51;100541.31;;;9.72;63.57
10167;BME280;62970;53.130;8.244;2024-03-23T10:41:18;100528.03;;;9.83;64.02
10167;BME280;62970;53.130;8.244;2024-03-23T10:43:48;100534.78;;;9.90;63.83
10167;BME280;62970;53.130;8.244;2024-03-23T10:46:15;100537.31;;;9.93;63.14
10167;BME280;62970;53.130;8.244;2024-03-23T10:48:41;100536.34;;;9.97;62.69
10167;BME280;62970;53.130;8.244;2024-03-23T10:51:08;100540.59;;;10.03;62.89
10167;BME280;62970;53.130;8.244;2024-03-23T10:53:36;100537.00;;;10.07;62.54
10167;BME280;62970;53.130;8.244;2024-03-23T10:56:06;100543.94;;;10.08;62.54
10167;BME280;62970;53.130;8.244;2024-03-23T10:58:39;100528.31;;;10.08;62.18
10167;BME280;62970;53.130;8.244;2024-03-23T11:01:06;100536.94;;;10.10;62.60
10167;BME280;62970;53.130;8.244;2024-03-23T11:03:35;100529.09;;;10.11;61.73
10167;BME280;62970;53.130;8.244;2024-03-23T11:06:03;100523.03;;;10.11;61.63
10167;BME280;62970;53.130;8.244;2024-03-23T11:08:34;100524.78;;;10.10;61.92
10167;BME280;62970;53.130;8.244;2024-03-23T11:11:17;100527.16;;;10.19;62.20
10167;BME280;62970;53.130;8.244;2024-03-23T11:13:45;100532.91;;;10.32;61.75
10167;BME280;62970;53.130;8.244;2024-03-23T11:16:22;100525.78;;;10.39;61.58
10167;BME280;62970;53.130;8.244;2024-03-23T11:18:49;100532.75;;;10.38;60.81
10167;BME280;62970;53.130;8.244;2024-03-23T11:21:52;100532.09;;;10.30;60.91
10167;BME280;62970;53.130;8.244;2024-03-23T11:24:21;100519.97;;;10.29;60.50
10167;BME280;62970;53.130;8.244;2024-03-23T11:26:50;100521.91;;;10.21;60.78
10167;BME280;62970;53.130;8.244;2024-03-23T11:29:17;100520.16;;;10.22;60.29
10167;BME280;62970;53.130;8.244;2024-03-23T11:31:47;100524.38;;;10.27;60.82
10167;BME280;62970;53.130;8.244;2024-03-23T11:34:15;100532.16;;;10.29;60.80
10167;BME280;62970;53.130;8.244;2024-03-23T11:36:42;100532.97;;;10.31;61.43
10167;BME280;62970;53.130;8.244;2024-03-23T11:39:13;100541.44;;;10.39;60.79
10167;BME280;62970;53.130;8.244;2024-03-23T11:41:50;100540.34;;;10.47;61.00
10167;BME280;62970;53.130;8.244;2024-03-23T11:44:18;100539.97;;;10.61;60.66
10167;BME280;62970;53.130;8.244;2024-03-23T11:46:45;100582.44;;;10.65;60.30
10167;BME280;62970;53.130;8.244;2024-03-23T11:49:25;100589.91;;;10.46;59.30
10167;BME280;62970;53.130;8.244;2024-03-23T11:51:54;100601.91;;;10.16;59.08
10167;BME280;62970;53.130;8.244;2024-03-23T11:54:21;100609.00;;;9.72;58.18
10167;BME280;62970;53.130;8.244;2024-03-23T11:57:01;100616.34;;;9.13;59.01
10167;BME280;62970;53.130;8.244;2024-03-23T11:59:35;100620.78;;;8.60;59.35
10167;BME280;62970;53.130;8.244;2024-03-23T12:02:07;100635.38;;;8.17;60.32
10167;BME280;62970;53.130;8.244;2024-03-23T12:04:33;100612.63;;;7.76;60.52
10167;BME280;62970;53.130;8.244;2024-03-23T12:07:12;100599.31;;;7.36;61.24
10167;BME280;62970;53.130;8.244;2024-03-23T12:09:39;100588.31;;;7.14;62.69
10167;BME280;62970;53.130;8.244;2024-03-23T12:12:11;100579.72;;;7.10;63.31
10167;BME280;62970;53.130;8.244;2024-03-23T12:14:39;100565.78;;;7.20;64.08
10167;BME280;62970;53.130;8.244;2024-03-23T12:17:13;100553.53;;;7.33;64.29
10167;BME280;62970;53.130;8.244;2024-03-23T12:19:41;100548.25;;;7.42;64.29
10167;BME280;62970;53.130;8.244;2024-03-23T12:22:08;100542.94;;;7.50;64.01
10167;BME280;62970;53.130;8.244;2024-03-23T12:24:35;100536.78;;;7.57;64.30
10167;BME280;62970;53.130;8.244;2024-03-23T12:27:03;100529.81;;;7.60;64.22
10167;BME280;62970;53.130;8.244;2024-03-23T12:29:33;100532.38;;;7.62;64.38
10167;BME280;62970;53.130;8.244;2024-03-23T12:32:01;100528.06;;;7.61;64.12
10167;BME280;62970;53.130;8.244;2024-03-23T12:34:28;100528.09;;;7.59;64.36
10167;BME280;62970;53.130;8.244;2024-03-23T12:36:54;100538.47;;;7.59;64.46
10167;BME280;62970;53.130;8.244;2024-03-23T12:39:21;100535.88;;;7.59;64.78
10167;BME280;62970;53.130;8.244;2024-03-23T12:41:47;100538.44;;;7.62;65.29
10167;BME280;62970;53.130;8.244;2024-03-23T12:44:14;100527.97;;;7.67;64.83
10167;BME280;62970;53.130;8.244;2024-03-23T12:46:43;100524.38;;;7.76;64.70
10167;BME280;62970;53.130;8.244;2024-03-23T12:49:10;100528.50;;;7.87;65.05
10167;BME280;62970;53.130;8.244;2024-03-23T12:51:37;100525.66;;;8.03;64.74
10167;BME280;62970;53.130;8.244;2024-03-23T12:54:04;100533.22;;;8.16;64.70
10167;BME280;62970;53.130;8.244;2024-03-23T12:56:31;100522.72;;;8.22;64.94
10167;BME280;62970;53.130;8.244;2024-03-23T12:58:57;100546.09;;;8.22;64.02
10167;BME280;62970;53.130;8.244;2024-03-23T13:01:24;100549.78;;;8.09;62.93
10167;BME280;62970;53.130;8.244;2024-03-23T13:03:53;100548.38;;;7.90;63.45
10167;BME280;62970;53.130;8.244;2024-03-23T13:06:20;100539.00;;;7.81;64.03
10167;BME280;62970;53.130;8.244;2024-03-23T13:08:46;100541.63;;;7.80;64.21
10167;BME280;62970;53.130;8.244;2024-03-23T13:11:13;100534.63;;;7.83;64.20
10167;BME280;62970;53.130;8.244;2024-03-23T13:13:40;100535.38;;;7.91;64.26
10167;BME280;62970;53.130;8.244;2024-03-23T13:16:06;100525.78;;;7.95;64.01
10167;BME280;62970;53.130;8.244;2024-03-23T13:18:36;100517.13;;;7.96;63.23
10167;BME280;62970;53.130;8.244;2024-03-23T13:21:05;100523.16;;;7.97;63.30
10167;BME280;62970;53.130;8.244;2024-03-23T13:23:31;100518.94;;;7.91;62.74
10167;BME280;62970;53.130;8.244;2024-03-23T13:25:58;100516.50;;;7.82;62.37
10167;BME280;62970;53.130;8.244;2024-03-23T13:28:24;100518.31;;;7.75;62.99
10167;BME280;62970;53.130;8.244;2024-03-23T13:30:52;100513.22;;;7.71;62.47
10167;BME280;62970;53.130;8.244;2024-03-23T13:33:18;100506.31;;;7.70;63.23
10167;BME280;62970;53.130;8.244;2024-03-23T13:35:51;100505.44;;;7.69;62.63
10167;BME280;62970;53.130;8.244;2024-03-23T13:38:21;100508.03;;;7.71;62.87
10167;BME280;62970;53.130;8.244;2024-03-23T13:40:55;100503.63;;;7.76;62.66
10167;BME280;62970;53.130;8.244;2024-03-23T13:43:22;100506.91;;;7.85;62.92
10167;BME280;62970;53.130;8.244;2024-03-23T13:45:53;100503.19;;;8.00;62.81
10167;BME280;62970;53.130;8.244;2024-03-23T13:48:20;100498.63;;;8.14;62.76
10167;BME280;62970;53.130;8.244;2024-03-23T13:50:47;100507.81;;;8.32;62.64
10167;BME280;62970;53.130;8.244;2024-03-23T13:53:14;100506.63;;;8.50;62.21
10167;BME280;62970;53.130;8.244;2024-03-23T13:55:49;100509.75;;;8.67;62.26
10167;BME280;62970;53.130;8.244;2024-03-23T13:58:16;100516.47;;;8.79;61.13